Time;durP1;ratioP1;P1;durP2;ratioP2;P2;SDS_P1;SDS_P2;PMS_P1;PMS_P2;Temp;Humidity;BMP_temperature;BMP_pressure;BME280_temperature;BME280_humidity;BME280_pressure;Samples;Min_cycle;Max_cycle;Signal;HPM_P1;HPM_P2
2023/06/21 00:02:05;;;;;;;4.40;4.00;;;26.70;61.90;;;;;;222430;1260;22509;-56
2023/06/21 00:07:09;;;;;;;4.50;3.90;;;26.70;62.00;;;;;;222206;1256;24215;-54
2023/06/21 00:12:14;;;;;;;4.70;4.30;;;26.60;61.90;;;;;;222139;1259;22504;-55
2023/06/21 00:17:18;;;;;;;4.20;3.80;;;26.80;61.80;;;;;;222400;1260;22512;-57
2023/06/21 00:22:22;;;;;;;4.30;4.00;;;26.90;61.70;;;;;;222347;1253;24181;-55
2023/06/21 00:27:27;;;;;;;4.60;4.20;;;27.00;61.50;;;;;;222368;1253;22674;-56
2023/06/21 00:32:31;;;;;;;4.20;3.90;;;27.00;61.20;;;;;;221989;1262;22507;-57
2023/06/21 00:37:37;;;;;;;4.70;4.30;;;27.00;61.40;;;;;;222113;1256;22517;-57
2023/06/21 00:42:41;;;;;;;5.10;4.70;;;27.00;61.40;;;;;;222097;1265;24233;-53
2023/06/21 00:47:45;;;;;;;4.30;4.00;;;27.00;61.40;;;;;;222219;1262;22511;-55
2023/06/21 00:52:50;;;;;;;4.90;4.40;;;27.00;61.50;;;;;;221969;1268;23093;-54
2023/06/21 00:57:57;;;;;;;5.60;4.30;;;27.00;62.00;;;;;;223858;1267;22519;-55
2023/06/21 01:03:01;;;;;;;4.30;4.00;;;27.00;61.50;;;;;;223365;1265;24334;-55
2023/06/21 01:08:15;;;;;;;4.60;4.30;;;27.00;61.40;;;;;;222392;1260;24736;-54
2023/06/21 01:13:36;;;;;;;4.70;4.40;;;27.00;61.60;;;;;;222639;1265;22522;-56
2023/06/21 01:18:45;;;;;;;;;;;27.00;61.10;;;;;;222422;1263;25408;-52
2023/06/21 01:24:07;;;;;;;6.40;4.30;;;27.00;61.90;;;;;;222598;1265;22507;-57
2023/06/21 01:29:16;;;;;;;4.50;4.20;;;26.90;62.00;;;;;;222556;1265;24762;-55
2023/06/21 01:34:23;;;;;;;4.20;3.90;;;26.90;62.10;;;;;;222397;1262;22511;-58
2023/06/21 01:39:28;;;;;;;4.00;3.80;;;26.90;62.20;;;;;;222265;1263;22509;-60
2023/06/21 01:44:33;;;;;;;4.40;4.10;;;26.90;62.30;;;;;;222168;1253;24530;-59
2023/06/21 01:49:39;;;;;;;4.90;4.50;;;26.90;62.30;;;;;;222579;1253;22514;-58
2023/06/21 01:54:43;;;;;;;4.10;3.70;;;26.90;62.40;;;;;;222154;1253;25493;-60
2023/06/21 01:59:47;;;;;;;4.40;4.10;;;26.90;62.30;;;;;;222448;1253;23977;-62
2023/06/21 02:04:53;;;;;;;4.20;3.90;;;26.80;62.40;;;;;;222195;1262;25397;-59
2023/06/21 02:09:57;;;;;;;4.30;4.00;;;26.90;62.60;;;;;;222452;1262;24245;-60
2023/06/21 02:15:03;;;;;;;4.00;3.70;;;26.90;62.00;;;;;;222182;1253;368234;-60
2023/06/21 02:20:13;;;;;;;4.20;3.90;;;26.90;62.00;;;;;;222555;1263;24357;-59
2023/06/21 02:25:17;;;;;;;4.30;4.00;;;26.90;62.90;;;;;;222285;1263;24264;-60
2023/06/21 02:30:24;;;;;;;4.20;4.00;;;26.80;62.30;;;;;;222559;1264;24150;-58
2023/06/21 02:35:29;;;;;;;4.80;4.50;;;26.80;62.60;;;;;;222319;1265;22557;-60
2023/06/21 02:40:33;;;;;;;4.20;3.90;;;26.80;62.50;;;;;;222397;1262;23928;-60
2023/06/21 02:45:37;;;;;;;4.20;4.00;;;26.90;62.20;;;;;;222294;1256;22532;-58
2023/06/21 02:50:41;;;;;;;4.40;4.10;;;26.90;62.00;;;;;;222129;1265;22772;-60
2023/06/21 02:55:45;;;;;;;4.10;3.90;;;26.90;62.30;;;;;;230122;1265;22158;-58
2023/06/21 03:00:49;;;;;;;3.90;3.70;;;26.90;62.30;;;;;;228476;1260;22595;-58
2023/06/21 03:05:53;;;;;;;4.60;4.30;;;27.10;61.50;;;;;;226140;1265;22536;-57
2023/06/21 03:10:58;;;;;;;4.50;4.20;;;27.20;61.30;;;;;;230439;1265;22146;-57
2023/06/21 03:16:02;;;;;;;6.90;4.30;;;27.10;61.30;;;;;;222181;1260;22538;-57
2023/06/21 03:21:08;;;;;;;4.30;4.00;;;27.00;61.40;;;;;;222548;1258;22527;-58
2023/06/21 03:26:13;;;;;;;5.10;4.60;;;27.00;62.10;;;;;;222201;1266;25207;-58
2023/06/21 03:31:19;;;;;;;4.20;3.90;;;26.90;62.00;;;;;;222302;1263;24429;-61
2023/06/21 03:36:26;;;;;;;3.90;3.70;;;26.80;62.60;;;;;;222096;1263;24171;-58
2023/06/21 03:41:31;;;;;;;4.60;4.30;;;26.90;62.40;;;;;;222507;1266;25275;-59
2023/06/21 03:46:35;;;;;;;4.10;3.70;;;26.90;62.40;;;;;;222512;1267;22511;-58
2023/06/21 03:51:40;;;;;;;4.90;4.10;;;26.80;62.80;;;;;;222303;1263;23191;-59
2023/06/21 03:56:44;;;;;;;4.20;3.80;;;26.90;62.50;;;;;;222288;1263;22606;-58
2023/06/21 04:01:48;;;;;;;4.60;4.30;;;26.90;62.60;;;;;;222291;1263;22495;-59
2023/06/21 04:06:53;;;;;;;4.20;3.90;;;26.80;62.30;;;;;;222306;1265;24174;-56
2023/06/21 04:11:57;;;;;;;4.30;4.10;;;26.80;62.30;;;;;;222372;1256;23924;-57
2023/06/21 04:17:03;;;;;;;4.80;4.50;;;26.80;62.70;;;;;;222417;1266;22514;-60
2023/06/21 04:22:07;;;;;;;4.50;4.20;;;26.80;63.40;;;;;;222057;1254;22515;-60
2023/06/21 04:27:12;;;;;;;4.50;4.30;;;26.80;62.50;;;;;;222496;1263;24043;-58
2023/06/21 04:32:18;;;;;;;4.60;4.30;;;26.80;62.70;;;;;;222319;1253;25198;-60
2023/06/21 04:37:23;;;;;;;5.10;4.40;;;26.80;62.60;;;;;;222403;1247;24216;-59
2023/06/21 04:42:28;;;;;;;4.40;4.00;;;26.90;62.40;;;;;;222195;1267;25497;-59
2023/06/21 04:47:32;;;;;;;5.00;4.50;;;26.90;62.40;;;;;;222404;1263;23909;-59
2023/06/21 04:52:37;;;;;;;4.40;4.00;;;26.90;62.60;;;;;;222335;1267;22651;-60
2023/06/21 04:57:41;;;;;;;5.30;4.80;;;26.90;63.00;;;;;;222423;1256;24336;-56
2023/06/21 05:02:49;;;;;;;4.80;4.50;;;26.80;63.00;;;;;;222083;1267;22629;-60
2023/06/21 05:07:54;;;;;;;4.70;4.40;;;26.90;63.00;;;;;;222473;1265;24271;-58
2023/06/21 05:12:58;;;;;;;4.20;3.80;;;26.80;63.60;;;;;;222079;1253;22519;-60
2023/06/21 05:18:05;;;;;;;4.50;4.30;;;26.90;62.60;;;;;;222333;1254;22514;-60
2023/06/21 05:23:09;;;;;;;4.60;4.30;;;26.80;62.60;;;;;;222550;1265;22522;-60
2023/06/21 05:28:13;;;;;;;5.00;4.70;;;26.90;62.90;;;;;;221959;1262;22584;-60
2023/06/21 05:33:17;;;;;;;4.90;4.60;;;26.90;62.70;;;;;;222017;1261;23909;-58
2023/06/21 05:38:21;;;;;;;5.10;4.80;;;26.90;62.90;;;;;;222311;1263;22518;-60
2023/06/21 05:43:25;;;;;;;4.60;4.10;;;26.90;62.80;;;;;;222377;1262;25368;-62
2023/06/21 05:48:29;;;;;;;9.20;4.90;;;26.90;62.90;;;;;;222336;1267;22823;-60
2023/06/21 05:53:33;;;;;;;9.20;5.60;;;26.80;62.80;;;;;;222410;1261;24197;-60
2023/06/21 05:58:38;;;;;;;5.90;5.40;;;26.80;63.10;;;;;;222253;1266;24391;-60
2023/06/21 06:03:42;;;;;;;6.60;6.10;;;26.80;63.20;;;;;;222202;1259;22606;-58
2023/06/21 06:08:46;;;;;;;7.40;6.80;;;26.80;63.10;;;;;;222016;1265;23998;-57
2023/06/21 06:13:50;;;;;;;6.80;6.20;;;26.80;62.90;;;;;;222400;1265;27530;-58
2023/06/21 06:18:55;;;;;;;8.20;7.30;;;26.80;62.90;;;;;;222421;1262;22644;-62
2023/06/21 06:23:59;;;;;;;8.20;7.50;;;26.80;63.80;;;;;;222234;1260;22589;-57
2023/06/21 06:29:03;;;;;;;9.50;8.50;;;26.80;63.20;;;;;;222723;1263;23774;-59
2023/06/21 06:34:07;;;;;;;12.10;10.50;;;26.70;63.90;;;;;;222237;1264;22509;-56
2023/06/21 06:39:12;;;;;;;11.20;9.80;;;26.60;64.90;;;;;;222228;1262;24362;-59
2023/06/21 06:44:16;;;;;;;15.20;13.40;;;26.70;64.70;;;;;;222539;1266;22635;-57
2023/06/21 06:49:20;;;;;;;20.70;14.20;;;26.50;65.80;;;;;;222479;1262;22554;-57
2023/06/21 06:54:24;;;;;;;18.50;14.50;;;26.20;67.00;;;;;;222125;1266;25233;-58
2023/06/21 06:59:28;;;;;;;18.70;13.00;;;26.20;67.60;;;;;;222224;1261;22512;-54
2023/06/21 07:04:33;;;;;;;23.80;14.40;;;26.30;67.50;;;;;;222493;1260;23900;-56
2023/06/21 07:09:37;;;;;;;15.80;12.90;;;26.30;68.10;;;;;;222103;1254;22519;-56
2023/06/21 07:14:42;;;;;;;17.40;12.70;;;26.40;67.20;;;;;;221730;1265;24249;-57
2023/06/21 07:19:46;;;;;;;19.00;13.10;;;26.50;66.70;;;;;;224326;1266;23756;-57
2023/06/21 07:24:50;;;;;;;15.30;13.90;;;26.90;65.60;;;;;;222603;1266;22604;-57
2023/06/21 07:29:54;;;;;;;16.50;14.30;;;26.70;66.40;;;;;;222386;1262;25321;-57
2023/06/21 07:34:59;;;;;;;15.70;14.10;;;26.50;67.70;;;;;;222363;1267;22522;-58
2023/06/21 07:40:05;;;;;;;16.30;14.80;;;26.00;69.30;;;;;;222293;1264;22774;-58
2023/06/21 07:45:10;;;;;;;17.10;15.20;;;25.60;71.00;;;;;;222645;1266;22513;-56
2023/06/21 07:50:14;;;;;;;16.50;13.90;;;25.40;71.50;;;;;;222276;1260;22557;-57
2023/06/21 07:55:25;;;;;;;17.40;15.70;;;25.70;70.90;;;;;;221960;1261;24335;-57
2023/06/21 08:00:30;;;;;;;16.60;13.80;;;25.90;70.30;;;;;;222215;1260;22723;-57
2023/06/21 08:05:34;;;;;;;19.40;15.10;;;25.90;70.80;;;;;;222244;1267;22509;-55
2023/06/21 08:10:39;;;;;;;18.90;15.20;;;26.10;69.70;;;;;;221928;1264;22744;-57
2023/06/21 08:15:43;;;;;;;18.30;15.30;;;26.40;69.70;;;;;;222296;1261;24352;-58
2023/06/21 08:20:48;;;;;;;21.90;16.60;;;26.40;69.30;;;;;;222139;1263;23864;-58
2023/06/21 08:25:52;;;;;;;17.70;15.70;;;26.50;70.40;;;;;;222512;1253;22909;-56
2023/06/21 08:30:57;;;;;;;17.50;15.40;;;26.50;70.50;;;;;;222311;1267;22506;-54
2023/06/21 08:36:06;;;;;;;16.40;14.50;;;26.70;70.70;;;;;;222608;1260;24802;-56
2023/06/21 08:41:10;;;;;;;16.50;14.80;;;26.60;70.30;;;;;;222204;1254;23998;-59
2023/06/21 08:46:15;;;;;;;15.70;14.20;;;26.60;70.30;;;;;;222415;1260;24190;-57
2023/06/21 08:51:21;;;;;;;15.90;14.30;;;26.60;70.20;;;;;;222226;1264;24290;-58
2023/06/21 08:56:27;;;;;;;15.20;13.70;;;26.60;70.50;;;;;;222603;1260;23138;-55
2023/06/21 09:01:38;;;;;;;17.70;13.30;;;26.60;70.80;;;;;;222324;1244;25302;-58
2023/06/21 09:06:44;;;;;;;15.20;13.70;;;26.50;70.50;;;;;;222056;1264;23552;-57
2023/06/21 09:11:48;;;;;;;14.00;12.60;;;26.50;70.30;;;;;;221969;1257;24257;-58
2023/06/21 09:16:52;;;;;;;13.80;12.50;;;26.50;70.10;;;;;;222103;1254;24324;-58
2023/06/21 09:22:00;;;;;;;14.10;11.90;;;26.60;70.10;;;;;;222242;1264;22601;-60
2023/06/21 09:27:04;;;;;;;14.10;11.90;;;26.60;69.90;;;;;;222224;1262;23900;-54
2023/06/21 09:32:08;;;;;;;12.80;11.60;;;26.50;69.60;;;;;;222158;1263;25446;-58
2023/06/21 09:37:33;;;;;;;14.20;11.30;;;26.60;69.30;;;;;;222126;1266;22534;-58
2023/06/21 09:42:39;;;;;;;13.40;11.10;;;26.80;69.30;;;;;;222102;1264;24321;-58
2023/06/21 09:47:43;;;;;;;12.30;11.10;;;27.00;68.30;;;;;;222180;1254;23945;-58
2023/06/21 09:52:48;;;;;;;11.70;10.60;;;27.00;68.10;;;;;;222168;1267;22580;-58
2023/06/21 09:57:52;;;;;;;11.10;10.10;;;27.00;67.20;;;;;;222212;1260;22557;-58
2023/06/21 10:02:56;;;;;;;13.50;12.20;;;27.10;67.50;;;;;;222124;1254;22522;-59
2023/06/21 10:08:04;;;;;;;11.40;10.40;;;27.20;67.40;;;;;;222206;1264;22571;-56
2023/06/21 10:13:12;;;;;;;12.60;10.30;;;27.20;68.10;;;;;;222115;1254;22518;-52
2023/06/21 10:18:16;;;;;;;11.20;9.70;;;27.30;66.70;;;;;;221888;1254;24188;-54
2023/06/21 10:23:21;;;;;;;12.50;9.30;;;27.20;66.00;;;;;;222121;1268;22512;-55
2023/06/21 10:28:28;;;;;;;10.00;9.20;;;27.20;65.70;;;;;;221954;1254;22593;-56
2023/06/21 10:33:35;;;;;;;11.00;10.00;;;27.40;65.50;;;;;;222095;1260;22510;-56
2023/06/21 10:38:45;;;;;;;9.20;8.30;;;27.40;65.50;;;;;;222211;1258;25172;-54
2023/06/21 10:43:49;;;;;;;9.50;8.60;;;27.50;65.70;;;;;;222458;1264;23880;-57
2023/06/21 10:48:54;;;;;;;10.40;9.00;;;27.50;65.80;;;;;;221985;1256;24187;-55
2023/06/21 10:54:01;;;;;;;9.80;8.90;;;27.60;64.60;;;;;;222128;1264;22793;-56
2023/06/21 10:59:05;;;;;;;10.20;9.20;;;27.60;64.90;;;;;;221968;1254;25327;-57
2023/06/21 11:04:09;;;;;;;9.80;8.60;;;27.70;65.10;;;;;;221816;1248;22511;-57
2023/06/21 11:09:17;;;;;;;10.60;9.50;;;27.90;64.20;;;;;;222733;1256;22646;-56
2023/06/21 11:14:30;;;;;;;9.70;8.80;;;28.00;63.30;;;;;;222303;1264;25266;-47
2023/06/21 11:19:37;;;;;;;9.30;8.50;;;27.70;62.10;;;;;;222076;1256;25495;-45
2023/06/21 11:24:50;;;;;;;9.30;8.50;;;26.80;60.50;;;;;;222335;1263;22644;-46
2023/06/21 11:30:10;;;;;;;8.70;7.90;;;26.60;62.80;;;;;;222137;1253;22789;-45
2023/06/21 11:35:50;;;;;;;12.30;8.60;;;26.30;62.30;;;;;;222092;1257;22530;-44
2023/06/21 11:40:54;;;;;;;8.70;8.00;;;26.20;60.30;;;;;;222466;1264;24048;-48
2023/06/21 11:46:01;;;;;;;14.70;7.80;;;26.20;60.20;;;;;;221960;1253;22729;-47
2023/06/21 11:51:09;;;;;;;8.90;8.10;;;26.30;60.90;;;;;;222407;1268;22918;-47
2023/06/21 11:56:17;;;;;;;8.10;7.50;;;26.30;63.00;;;;;;222066;1250;22814;-46
2023/06/21 12:01:21;;;;;;;9.60;8.70;;;26.20;63.70;;;;;;222326;1254;22847;-44
2023/06/21 12:06:26;;;;;;;8.70;7.90;;;26.10;63.90;;;;;;222183;1257;24183;-45
2023/06/21 12:11:31;;;;;;;8.50;7.80;;;26.00;62.40;;;;;;222461;1260;22530;-48
2023/06/21 12:16:35;;;;;;;8.00;7.30;;;25.90;60.40;;;;;;221075;1266;24330;-48
2023/06/21 12:21:39;;;;;;;8.50;7.70;;;26.00;60.70;;;;;;221031;1260;22524;-46
2023/06/21 12:26:57;;;;;;;8.20;7.60;;;26.00;63.70;;;;;;221099;1260;22521;-45
2023/06/21 12:32:03;;;;;;;7.30;6.80;;;25.90;64.10;;;;;;221421;1259;25299;-46
2023/06/21 12:37:07;;;;;;;7.50;6.90;;;25.80;62.70;;;;;;222371;1257;24372;-46
2023/06/21 12:42:11;;;;;;;8.30;7.70;;;25.90;61.00;;;;;;222340;1260;22524;-47
2023/06/21 12:47:16;;;;;;;8.10;7.40;;;26.00;64.60;;;;;;222449;1254;22511;-46
2023/06/21 12:52:26;;;;;;;7.90;7.20;;;25.80;65.00;;;;;;222716;1260;24249;-46
2023/06/21 12:57:31;;;;;;;6.70;6.20;;;25.70;62.10;;;;;;222464;1260;22627;-46
2023/06/21 13:02:35;;;;;;;7.20;6.70;;;26.00;63.70;;;;;;222650;1260;22520;-44
2023/06/21 13:07:40;;;;;;;7.50;7.00;;;25.80;65.20;;;;;;222601;1257;22564;-49
2023/06/21 13:12:44;;;;;;;6.60;6.10;;;25.70;63.30;;;;;;222349;1255;22656;-46
2023/06/21 13:17:48;;;;;;;7.50;6.90;;;25.90;63.10;;;;;;222307;1261;23893;-51
2023/06/21 13:22:53;;;;;;;7.50;7.00;;;25.90;66.00;;;;;;222163;1253;24337;-46
2023/06/21 13:27:57;;;;;;;10.50;6.80;;;25.70;65.40;;;;;;222327;1262;24083;-45
2023/06/21 13:33:01;;;;;;;8.60;7.60;;;25.70;62.50;;;;;;222710;1260;22510;-47
2023/06/21 13:38:06;;;;;;;10.30;9.20;;;25.90;65.40;;;;;;222356;1260;24253;-50
2023/06/21 13:43:11;;;;;;;11.50;8.90;;;25.80;67.40;;;;;;222016;1260;22539;-54
2023/06/21 13:48:16;;;;;;;8.90;8.10;;;25.70;66.00;;;;;;222212;1261;25171;-51
2023/06/21 13:53:21;;;;;;;9.30;8.40;;;25.80;63.50;;;;;;222350;1260;22569;-51
2023/06/21 13:58:26;;;;;;;8.50;7.40;;;25.90;64.40;;;;;;222248;1260;23020;-47
2023/06/21 14:03:33;;;;;;;8.20;7.40;;;25.80;66.80;;;;;;222470;1254;22537;-48
2023/06/21 14:08:38;;;;;;;8.50;7.70;;;25.70;65.50;;;;;;222492;1260;22651;-51
2023/06/21 14:13:43;;;;;;;8.50;7.60;;;25.70;62.80;;;;;;222403;1253;444262;-51
2023/06/21 14:18:49;;;;;;;7.20;6.50;;;25.90;65.50;;;;;;222216;1260;23876;-50
2023/06/21 14:23:53;;;;;;;8.00;7.20;;;25.80;66.50;;;;;;222286;1260;23780;-50
2023/06/21 14:28:57;;;;;;;7.30;6.70;;;25.80;65.00;;;;;;222333;1263;22535;-53
2023/06/21 14:34:02;;;;;;;7.50;6.70;;;25.80;62.50;;;;;;222400;1263;22634;-50
2023/06/21 14:39:08;;;;;;;7.80;6.80;;;25.90;63.80;;;;;;222659;1253;23013;-51
2023/06/21 14:44:12;;;;;;;7.00;6.50;;;25.90;65.80;;;;;;222997;1260;24360;-49
2023/06/21 14:49:17;;;;;;;7.90;7.10;;;25.90;66.00;;;;;;222280;1260;25324;-52
2023/06/21 14:54:21;;;;;;;7.40;6.70;;;25.80;64.90;;;;;;223387;1263;22520;-58
2023/06/21 14:59:25;;;;;;;7.20;6.50;;;25.80;63.70;;;;;;222173;1253;25364;-51
2023/06/21 15:04:30;;;;;;;9.60;7.00;;;25.90;62.90;;;;;;222102;1254;23893;-54
2023/06/21 15:09:35;;;;;;;7.40;6.70;;;26.00;64.90;;;;;;222203;1255;22508;-53
2023/06/21 15:14:39;;;;;;;11.20;7.20;;;26.00;66.40;;;;;;222215;1266;24740;-48
2023/06/21 15:19:44;;;;;;;14.70;7.30;;;26.00;69.00;;;;;;230547;1264;22322;-53
2023/06/21 15:24:48;;;;;;;11.90;7.50;;;26.00;67.90;;;;;;230057;1261;22147;-49
2023/06/21 15:29:52;;;;;;;12.20;7.50;;;26.10;66.40;;;;;;222261;1253;24170;-51
2023/06/21 15:34:56;;;;;;;14.40;7.30;;;26.00;64.40;;;;;;222297;1262;22520;-47
2023/06/21 15:40:03;;;;;;;11.30;7.40;;;26.10;64.80;;;;;;230148;1262;22185;-44
2023/06/21 15:45:08;;;;;;;10.80;6.80;;;26.60;65.20;;;;;;229882;1261;22956;-45
2023/06/21 15:50:14;;;;;;;12.30;6.60;;;27.50;63.50;;;;;;225196;1265;22525;-47
2023/06/21 15:55:18;;;;;;;13.10;6.80;;;27.60;62.70;;;;;;221694;1261;24348;-45
2023/06/21 16:00:22;;;;;;;9.30;6.50;;;27.40;63.40;;;;;;222054;1261;22545;-45
2023/06/21 16:05:26;;;;;;;9.80;6.80;;;27.60;63.10;;;;;;222438;1265;23002;-55
2023/06/21 16:10:31;;;;;;;10.90;6.70;;;27.70;63.10;;;;;;221775;1253;22627;-51
2023/06/21 16:15:35;;;;;;;8.70;6.40;;;27.80;63.20;;;;;;222001;1262;24371;-53
2023/06/21 16:20:39;;;;;;;6.70;5.90;;;27.60;63.20;;;;;;224176;1260;25137;-52
2023/06/21 16:25:47;;;;;;;6.80;6.20;;;27.60;63.20;;;;;;222027;1259;22511;-55
2023/06/21 16:30:51;;;;;;;7.10;6.10;;;27.40;63.60;;;;;;222333;1263;22518;-52
2023/06/21 16:35:55;;;;;;;8.10;6.70;;;27.40;63.80;;;;;;222373;1257;22537;-51
2023/06/21 16:40:59;;;;;;;7.60;5.90;;;27.50;63.60;;;;;;222387;1262;22507;-55
2023/06/21 16:46:03;;;;;;;9.00;6.40;;;27.60;63.40;;;;;;222324;1255;22734;-53
2023/06/21 16:51:08;;;;;;;6.10;5.50;;;27.60;63.20;;;;;;222132;1265;22523;-54
2023/06/21 16:56:14;;;;;;;6.60;5.90;;;27.70;63.50;;;;;;222677;1254;22579;-53
2023/06/21 17:01:18;;;;;;;9.40;5.90;;;27.70;63.00;;;;;;222113;1261;22531;-54
2023/06/21 17:06:24;;;;;;;6.80;6.00;;;27.80;63.30;;;;;;221948;1254;24222;-51
2023/06/21 17:11:28;;;;;;;8.20;5.30;;;27.40;62.40;;;;;;223041;1260;25397;-50
2023/06/21 17:16:32;;;;;;;9.50;5.80;;;27.50;63.70;;;;;;222415;1259;22521;-51
2023/06/21 17:21:36;;;;;;;8.60;6.20;;;27.70;63.80;;;;;;222582;1260;22630;-54
2023/06/21 17:26:40;;;;;;;6.80;5.60;;;27.80;63.70;;;;;;222302;1262;24375;-51
2023/06/21 17:31:45;;;;;;;8.00;5.90;;;27.80;63.40;;;;;;222148;1262;22774;-53
2023/06/21 17:36:49;;;;;;;6.50;5.60;;;27.90;63.30;;;;;;222087;1262;22576;-49
2023/06/21 17:41:53;;;;;;;8.10;6.10;;;27.90;63.00;;;;;;222160;1262;22508;-52
2023/06/21 17:46:57;;;;;;;6.80;5.30;;;27.90;63.20;;;;;;222548;1258;25390;-49
2023/06/21 17:52:02;;;;;;;6.20;5.60;;;27.90;62.90;;;;;;223122;1262;24266;-54
2023/06/21 17:57:06;;;;;;;5.80;5.30;;;27.90;62.80;;;;;;223028;1260;22529;-54
2023/06/21 18:02:10;;;;;;;12.30;5.70;;;28.00;63.70;;;;;;222524;1261;25322;-57
2023/06/21 18:07:15;;;;;;;7.70;5.80;;;28.10;63.60;;;;;;222377;1256;23095;-54
2023/06/21 18:12:19;;;;;;;19.60;6.80;;;27.70;61.70;;;;;;222362;1263;22506;-53
2023/06/21 18:17:23;;;;;;;8.10;6.10;;;27.10;60.60;;;;;;222339;1255;23146;-54
2023/06/21 18:22:27;;;;;;;5.70;5.20;;;26.80;58.60;;;;;;222314;1260;22507;-55
2023/06/21 18:27:46;;;;;;;9.50;5.20;;;26.50;56.20;;;;;;222524;1262;22795;-54
2023/06/21 18:32:50;;;;;;;7.60;5.50;;;26.30;54.50;;;;;;222408;1253;26159;-52
2023/06/21 18:37:55;;;;;;;13.20;5.70;;;26.10;53.80;;;;;;222286;1253;25351;-56
2023/06/21 18:43:00;;;;;;;5.70;5.00;;;25.80;53.90;;;;;;222239;1261;23805;-55
2023/06/21 18:48:04;;;;;;;10.00;5.20;;;25.80;53.30;;;;;;222412;1252;25249;-57
2023/06/21 18:53:09;;;;;;;5.90;4.80;;;25.70;53.30;;;;;;222468;1262;25578;-56
2023/06/21 18:58:13;;;;;;;5.00;4.50;;;25.50;53.80;;;;;;222181;1260;24044;-56
2023/06/21 19:03:17;;;;;;;8.60;4.80;;;25.30;51.50;;;;;;222069;1265;22517;-57
2023/06/21 19:08:21;;;;;;;14.10;5.30;;;24.90;50.60;;;;;;222652;1261;22504;-56
2023/06/21 19:13:25;;;;;;;11.20;5.00;;;24.60;50.50;;;;;;222334;1261;22510;-54
2023/06/21 19:18:29;;;;;;;6.50;4.90;;;24.30;50.50;;;;;;222536;1262;22503;-56
2023/06/21 19:23:34;;;;;;;9.70;5.00;;;24.80;55.90;;;;;;221630;1257;25313;-54
2023/06/21 19:28:38;;;;;;;8.30;5.00;;;24.50;51.60;;;;;;221607;1266;24067;-53
2023/06/21 19:33:42;;;;;;;7.60;4.70;;;24.00;50.90;;;;;;221867;1266;22514;-53
2023/06/21 19:38:47;;;;;;;13.70;5.00;;;24.00;51.10;;;;;;221560;1259;22507;-53
2023/06/21 19:43:52;;;;;;;5.60;5.10;;;24.50;54.00;;;;;;222208;1257;22644;-52
2023/06/21 19:48:56;;;;;;;11.30;4.90;;;24.30;52.00;;;;;;222287;1265;22515;-54
2023/06/21 19:54:01;;;;;;;9.90;4.50;;;24.10;52.20;;;;;;222423;1264;24304;-56
2023/06/21 19:59:05;;;;;;;9.20;4.70;;;24.40;52.60;;;;;;222179;1260;22773;-55
2023/06/21 20:04:09;;;;;;;8.60;4.50;;;24.10;54.20;;;;;;222562;1268;22629;-55
2023/06/21 20:09:13;;;;;;;13.70;4.90;;;25.10;53.20;;;;;;222623;1265;22570;-56
2023/06/21 20:14:17;;;;;;;9.90;4.90;;;25.80;56.50;;;;;;222656;1260;22623;-53
2023/06/21 20:19:21;;;;;;;13.60;5.80;;;26.10;53.90;;;;;;222211;1257;22600;-55
2023/06/21 20:24:25;;;;;;;11.60;5.90;;;26.30;54.40;;;;;;222308;1262;22508;-51
2023/06/21 20:29:29;;;;;;;11.90;5.20;;;26.50;54.70;;;;;;222269;1256;25687;-55
2023/06/21 20:34:34;;;;;;;13.20;6.50;;;26.50;54.90;;;;;;222547;1266;22508;-58
2023/06/21 20:39:38;;;;;;;14.80;5.50;;;26.60;55.30;;;;;;222282;1260;25314;-55
2023/06/21 20:44:42;;;;;;;10.10;5.80;;;26.70;55.30;;;;;;222345;1256;22513;-56
2023/06/21 20:49:46;;;;;;;7.60;5.20;;;26.70;55.70;;;;;;222545;1263;22510;-53
2023/06/21 20:54:50;;;;;;;9.70;5.20;;;26.80;55.80;;;;;;222172;1265;23909;-50
2023/06/21 20:59:54;;;;;;;9.40;5.00;;;26.80;56.10;;;;;;222554;1263;22552;-53
2023/06/21 21:04:59;;;;;;;11.30;5.00;;;26.90;56.50;;;;;;222163;1263;22539;-54
2023/06/21 21:10:04;;;;;;;7.90;4.70;;;27.00;56.20;;;;;;222590;1263;22511;-52
2023/06/21 21:15:08;;;;;;;6.90;4.50;;;27.00;56.50;;;;;;222278;1261;22514;-55
2023/06/21 21:20:12;;;;;;;7.40;4.40;;;27.10;56.60;;;;;;222544;1266;22515;-53
2023/06/21 21:25:16;;;;;;;6.70;4.10;;;27.00;56.90;;;;;;222443;1265;25462;-55
2023/06/21 21:30:20;;;;;;;8.70;4.60;;;27.10;56.90;;;;;;222478;1246;22824;-53
2023/06/21 21:35:24;;;;;;;6.10;4.40;;;27.00;57.40;;;;;;222665;1253;24264;-54
2023/06/21 21:40:29;;;;;;;8.80;4.50;;;27.00;57.50;;;;;;222128;1252;23851;-52
2023/06/21 21:45:34;;;;;;;6.70;4.40;;;27.00;57.60;;;;;;222441;1265;24331;-54
2023/06/21 21:50:38;;;;;;;5.10;4.50;;;27.10;57.70;;;;;;222443;1253;25327;-54
2023/06/21 21:55:44;;;;;;;4.90;4.50;;;27.10;57.80;;;;;;222563;1261;22511;-55
2023/06/21 22:00:48;;;;;;;9.30;4.60;;;27.00;57.90;;;;;;222210;1268;23015;-56
2023/06/21 22:05:52;;;;;;;4.70;4.30;;;27.00;58.20;;;;;;222276;1260;23924;-54
2023/06/21 22:10:56;;;;;;;6.30;4.90;;;27.00;58.60;;;;;;222320;1262;24184;-54
2023/06/21 22:16:01;;;;;;;6.30;4.30;;;27.00;58.70;;;;;;222278;1247;25481;-53
2023/06/21 22:21:05;;;;;;;4.30;3.90;;;27.10;58.80;;;;;;222545;1256;24008;-56
2023/06/21 22:26:09;;;;;;;4.50;4.10;;;27.00;59.00;;;;;;222443;1262;24194;-55
2023/06/21 22:31:14;;;;;;;7.30;4.90;;;27.10;59.20;;;;;;222712;1262;24229;-53
2023/06/21 22:36:21;;;;;;;5.20;4.10;;;27.20;59.00;;;;;;222227;1247;26622;-53
2023/06/21 22:41:27;;;;;;;5.80;4.50;;;27.00;59.40;;;;;;222653;1268;26198;-53
2023/06/21 22:46:32;;;;;;;4.70;4.30;;;27.00;59.40;;;;;;222546;1266;22524;-53
2023/06/21 22:51:37;;;;;;;4.90;4.50;;;27.10;59.30;;;;;;222614;1262;22616;-54
2023/06/21 22:56:41;;;;;;;9.10;5.00;;;27.00;59.70;;;;;;222412;1263;22907;-53
2023/06/21 23:01:45;;;;;;;7.50;4.60;;;27.10;62.80;;;;;;221347;1269;24019;-53
2023/06/21 23:06:49;;;;;;;6.90;4.40;;;27.30;60.10;;;;;;221237;1268;25503;-55
2023/06/21 23:11:55;;;;;;;5.50;4.80;;;27.20;60.50;;;;;;221139;1273;25354;-53
2023/06/21 23:17:00;;;;;;;6.50;5.40;;;27.30;60.70;;;;;;226280;1268;22550;-53
2023/06/21 23:22:04;;;;;;;5.70;5.00;;;27.50;60.40;;;;;;230123;1268;22311;-51
2023/06/21 23:27:14;;;;;;;7.10;5.70;;;27.60;60.10;;;;;;224237;1261;25340;-57
2023/06/21 23:32:24;;;;;;;6.70;5.30;;;27.70;60.20;;;;;;222370;1259;22528;-56
2023/06/21 23:37:30;;;;;;;10.40;6.00;;;27.50;60.90;;;;;;222315;1256;24255;-55
2023/06/21 23:42:38;;;;;;;6.40;5.60;;;27.40;61.50;;;;;;222461;1260;22514;-54
2023/06/21 23:47:42;;;;;;;6.90;6.30;;;27.40;62.40;;;;;;222001;1256;24179;-57
2023/06/21 23:52:47;;;;;;;7.90;6.10;;;27.40;62.20;;;;;;222706;1263;22517;-54
2023/06/21 23:57:51;;;;;;;7.10;6.10;;;27.40;61.80;;;;;;222566;1261;26063;-57
